Atco, New Jersey
Current Conditions -  °F | °C
As of 4:54 AM on Monday 26 Jan 2015 (Local Time) from KVAY Reporting Station
Overcast Overcast  
Wind Chill: 21°   Ceiling: 5000
Heat Index: 30°   Visibility: 10mi
Dew Point: 22°   Wind: 12mph
Humidity: 72%   Direction: 50°NE
Pressure: 29.94"   Gusts: NA
Location:  39.77°N, 74.89°W
Report Text: KVAY 260954Z AUTO 05010KT 10SM FEW022 SCT030 OVC050 M01/M06 A2994 RMK AO2 SLP140 T10111056
Loading
Personal Weather Stations






























Interactive Weather Map New forecast layout! Learn more

10-Day Weather Forecast

Advertisements
Track Severe Weather on mobile